createdAt,value
2022-10-05T00:03:43.286Z,99.90
2022-10-05T00:13:45.345Z,99.90
2022-10-05T00:23:49.210Z,99.90
2022-10-05T00:45:33.223Z,99.90
2022-10-05T01:07:22.867Z,99.90
2022-10-05T01:17:46.910Z,99.90
2022-10-05T01:28:16.766Z,99.90
2022-10-05T01:38:30.953Z,99.90
2022-10-05T01:49:09.198Z,99.90
2022-10-05T01:59:36.745Z,99.90
2022-10-05T02:09:57.854Z,99.90
2022-10-05T02:20:05.054Z,99.90
2022-10-05T02:30:29.233Z,99.90
2022-10-05T02:41:02.145Z,99.90
2022-10-05T02:51:29.184Z,99.90
2022-10-05T03:01:51.913Z,99.90
2022-10-05T03:12:21.120Z,99.90
2022-10-05T03:22:43.716Z,99.90
2022-10-05T03:33:23.725Z,99.90
2022-10-05T03:43:58.044Z,99.90
2022-10-05T03:54:16.937Z,99.90
2022-10-05T04:04:40.987Z,99.90
2022-10-05T04:15:39.506Z,99.90
2022-10-05T04:26:09.502Z,99.90
2022-10-05T04:36:26.921Z,99.90
2022-10-05T04:46:50.666Z,99.90
2022-10-05T04:56:59.841Z,99.90
2022-10-05T05:07:37.725Z,99.90
2022-10-05T05:18:05.360Z,99.90
2022-10-05T05:40:00.700Z,99.90
2022-10-05T06:01:44.195Z,99.90
2022-10-05T06:11:54.618Z,99.90
2022-10-05T06:34:02.144Z,99.90
2022-10-05T06:56:11.012Z,99.90
2022-10-05T08:03:24.857Z,99.90
2022-10-05T08:25:03.493Z,99.90
2022-10-05T08:35:57.722Z,99.90
2022-10-05T08:46:38.121Z,99.90
2022-10-05T11:50:26.870Z,93.80
2022-10-05T12:01:12.882Z,92.40
2022-10-05T12:11:26.730Z,91.80
2022-10-05T12:21:40.412Z,91.60
2022-10-05T12:32:11.506Z,92.70
2022-10-05T12:42:41.803Z,91.20
2022-10-05T13:03:38.051Z,90.90
2022-10-05T13:13:58.790Z,91.20
2022-10-05T13:24:52.098Z,90.40
2022-10-05T13:35:10.581Z,91.20
2022-10-05T13:45:16.908Z,92.00
2022-10-05T13:55:24.418Z,91.80
2022-10-05T14:05:31.006Z,91.50
2022-10-05T14:15:38.499Z,91.90
2022-10-05T14:25:48.936Z,92.40
2022-10-05T14:35:56.863Z,92.50
2022-10-05T14:46:01.610Z,92.90
2022-10-05T14:56:45.336Z,92.90
2022-10-05T15:07:22.222Z,93.40
2022-10-05T15:17:48.627Z,95.00
2022-10-05T15:28:19.384Z,95.90
2022-10-05T15:38:49.071Z,97.70
2022-10-05T15:49:22.358Z,99.20
2022-10-05T16:00:05.075Z,99.90
2022-10-05T16:10:20.974Z,99.90
2022-10-05T16:20:47.624Z,99.90
2022-10-05T16:41:59.913Z,99.90
2022-10-05T16:52:03.549Z,99.90
2022-10-05T17:02:18.868Z,99.90
2022-10-05T17:12:32.639Z,99.90
2022-10-05T17:22:49.586Z,99.90
2022-10-05T17:33:16.543Z,99.90
2022-10-05T17:43:27.878Z,99.90
2022-10-05T17:53:45.157Z,99.90
2022-10-05T18:03:51.553Z,99.90
2022-10-05T18:14:17.568Z,99.90
2022-10-05T18:24:47.592Z,99.90
2022-10-05T18:35:08.795Z,99.90
2022-10-05T18:45:22.572Z,99.90
2022-10-05T18:55:36.455Z,99.90
2022-10-05T19:06:12.110Z,99.90
2022-10-05T19:16:46.056Z,99.90
2022-10-05T19:27:11.480Z,99.90
2022-10-05T19:37:27.046Z,99.90
2022-10-05T19:47:42.263Z,99.90
2022-10-05T19:57:52.381Z,99.90
2022-10-05T20:07:54.275Z,99.90
2022-10-05T20:17:56.140Z,99.90
2022-10-05T20:27:59.968Z,99.90
2022-10-05T20:38:01.900Z,99.90
2022-10-05T20:48:03.740Z,99.90
2022-10-05T20:58:05.592Z,99.90
2022-10-05T21:08:10.398Z,99.90
2022-10-05T21:18:12.543Z,99.90
2022-10-05T21:28:14.738Z,99.90
2022-10-05T21:38:16.767Z,99.90
2022-10-05T21:48:18.892Z,99.90
2022-10-05T21:58:22.803Z,99.90
2022-10-05T22:08:27.323Z,99.90
2022-10-05T22:18:29.528Z,99.90
2022-10-05T22:28:44.335Z,99.90
2022-10-05T22:38:46.193Z,99.90
2022-10-05T22:48:49.818Z,99.90
2022-10-05T22:58:51.726Z,99.90
2022-10-05T23:08:54.542Z,99.90
2022-10-05T23:18:56.694Z,99.90
2022-10-05T23:29:00.193Z,99.90
2022-10-05T23:39:03.933Z,99.90
2022-10-05T23:49:05.757Z,99.90
2022-10-05T23:59:07.616Z,99.90
